createdAt,value
2023-01-22T00:00:55.853Z,102217.53
2023-01-22T00:07:57.717Z,102225.13
2023-01-22T00:14:59.373Z,102220.50
2023-01-22T00:22:00.968Z,102220.53
2023-01-22T00:29:03.369Z,102219.78
2023-01-22T00:36:10.156Z,102208.84
2023-01-22T00:43:11.838Z,102219.56
2023-01-22T00:50:13.451Z,102228.44
2023-01-22T00:57:15.201Z,102226.03
2023-01-22T01:04:16.943Z,102216.94
2023-01-22T01:11:23.487Z,102226.59
2023-01-22T01:18:25.585Z,102231.13
2023-01-22T01:25:27.232Z,102229.88
2023-01-22T01:32:29.133Z,102231.88
2023-01-22T01:39:30.728Z,102239.03
2023-01-22T01:46:32.497Z,102245.34
2023-01-22T01:53:34.236Z,102248.94
2023-01-22T02:00:36.451Z,102247.19
2023-01-22T02:07:38.438Z,102258.88
2023-01-22T02:14:41.436Z,102263.41
2023-01-22T02:21:43.743Z,102262.44
2023-01-22T02:28:45.388Z,102270.41
2023-01-22T02:35:47.179Z,102258.72
2023-01-22T02:42:49.070Z,102260.59
2023-01-22T02:49:50.743Z,102251.59
2023-01-22T02:56:53.186Z,102256.91
2023-01-22T03:04:13.711Z,102254.22
2023-01-22T03:11:16.308Z,102263.19
2023-01-22T03:18:38.618Z,102278.91
2023-01-22T03:25:40.273Z,102282.56
2023-01-22T03:32:42.598Z,102281.72
2023-01-22T03:39:45.292Z,102279.22
2023-01-22T03:46:55.440Z,102276.25
2023-01-22T03:53:58.366Z,102289.91
2023-01-22T04:01:01.814Z,102287.06
2023-01-22T04:08:04.961Z,102278.19
2023-01-22T04:15:09.616Z,102292.66
2023-01-22T04:22:11.487Z,102286.13
2023-01-22T04:29:13.747Z,102306.75
2023-01-22T04:36:15.934Z,102307.56
2023-01-22T04:43:17.690Z,102303.16
2023-01-22T04:50:21.851Z,102315.25
2023-01-22T04:57:24.778Z,102320.69
2023-01-22T05:04:26.923Z,102337.09
2023-01-22T05:11:28.664Z,102344.03
2023-01-22T05:18:36.069Z,102342.72
2023-01-22T05:25:37.954Z,102350.91
2023-01-22T05:32:41.058Z,102358.00
2023-01-22T05:39:42.777Z,102361.34
2023-01-22T05:46:45.881Z,102368.69
2023-01-22T05:54:04.502Z,102375.66
2023-01-22T06:01:10.514Z,102381.16
2023-01-22T06:08:19.329Z,102390.88
2023-01-22T06:15:25.469Z,102398.09
2023-01-22T06:22:37.131Z,102412.47
2023-01-22T06:29:40.222Z,102414.25
2023-01-22T06:36:43.629Z,102413.38
2023-01-22T06:43:45.785Z,102423.06
2023-01-22T06:50:47.871Z,102418.72
2023-01-22T06:57:49.509Z,102424.00
2023-01-22T07:04:51.161Z,102420.47
2023-01-22T07:11:52.819Z,102425.84
2023-01-22T07:18:54.460Z,102427.56
2023-01-22T07:25:56.217Z,102446.25
2023-01-22T07:32:59.469Z,102456.00
2023-01-22T07:40:01.139Z,102463.94
2023-01-22T07:47:02.729Z,102479.03
2023-01-22T07:54:04.510Z,102486.97
2023-01-22T08:01:07.084Z,102486.00
2023-01-22T08:08:18.894Z,102495.75
2023-01-22T08:15:22.936Z,102503.13
2023-01-22T08:22:24.608Z,102507.53
2023-01-22T08:29:26.309Z,102509.38
2023-01-22T08:36:31.495Z,102508.53
2023-01-22T08:43:33.225Z,102512.75
2023-01-22T08:50:34.907Z,102516.31
2023-01-22T08:57:37.038Z,102525.97
2023-01-22T09:04:40.428Z,102533.97
2023-01-22T09:11:42.275Z,102556.50
2023-01-22T09:18:43.944Z,102558.91
2023-01-22T09:25:45.544Z,102561.63
2023-01-22T09:32:47.212Z,102564.25
2023-01-22T09:39:49.794Z,102571.31
2023-01-22T09:46:57.475Z,102576.75
2023-01-22T09:53:59.776Z,102578.53
2023-01-22T10:01:04.295Z,102576.59
2023-01-22T10:08:10.204Z,102574.94
2023-01-22T10:15:22.746Z,102577.56
2023-01-22T10:22:25.371Z,102567.78
2023-01-22T10:29:30.069Z,102571.31
2023-01-22T10:36:31.995Z,102585.47
2023-01-22T10:43:38.025Z,102584.53
2023-01-22T10:50:39.922Z,102584.66
2023-01-22T10:57:41.508Z,102570.31
2023-01-22T11:04:43.225Z,102573.09
2023-01-22T11:11:54.984Z,102573.03
2023-01-22T11:19:18.087Z,102581.06
2023-01-22T11:26:40.427Z,102581.81
2023-01-22T11:34:02.161Z,102581.03
2023-01-22T11:41:09.774Z,102578.38
2023-01-22T11:48:16.306Z,102572.13
2023-01-22T11:55:39.932Z,102571.84
2023-01-22T12:03:13.362Z,102579.94
2023-01-22T12:10:41.622Z,102580.09
2023-01-22T12:17:55.248Z,102580.28
2023-01-22T12:25:18.510Z,102577.38
2023-01-22T12:32:22.944Z,102585.69
2023-01-22T12:39:34.514Z,102580.31
2023-01-22T12:46:39.148Z,102587.44
2023-01-22T12:53:40.801Z,102589.22
2023-01-22T13:00:42.382Z,102586.50
2023-01-22T13:07:44.045Z,102588.28
2023-01-22T13:14:45.683Z,102582.91
2023-01-22T13:21:47.373Z,102593.53
2023-01-22T13:29:03.470Z,102592.91
2023-01-22T13:36:10.743Z,102592.81
2023-01-22T13:43:15.308Z,102593.72
2023-01-22T13:50:30.203Z,102589.19
2023-01-22T13:57:31.876Z,102590.88
2023-01-22T14:04:36.972Z,102598.06
2023-01-22T14:11:39.908Z,102606.09
2023-01-22T14:18:41.879Z,102605.09
2023-01-22T14:25:47.763Z,102614.91
2023-01-22T14:32:49.372Z,102617.66
2023-01-22T14:39:51.037Z,102623.69
2023-01-22T14:46:52.814Z,102631.00
2023-01-22T14:53:54.444Z,102628.47
2023-01-22T15:00:56.068Z,102639.06
2023-01-22T15:07:58.731Z,102638.19
2023-01-22T15:15:00.317Z,102639.88
2023-01-22T15:22:03.541Z,102638.16
2023-01-22T15:29:07.089Z,102652.34
2023-01-22T15:36:08.923Z,102656.81
2023-01-22T15:43:10.609Z,102669.22
2023-01-22T15:50:15.800Z,102672.78
2023-01-22T15:57:17.586Z,102687.03
2023-01-22T16:04:19.239Z,102686.19
2023-01-22T16:11:21.324Z,102689.72
2023-01-22T16:18:22.929Z,102695.81
2023-01-22T16:25:24.670Z,102696.81
2023-01-22T16:32:26.270Z,102702.97
2023-01-22T16:39:27.942Z,102711.06
2023-01-22T16:46:30.905Z,102725.22
2023-01-22T16:53:33.525Z,102718.19
2023-01-22T17:00:35.151Z,102719.91
2023-01-22T17:07:36.731Z,102737.72
2023-01-22T17:14:38.497Z,102744.03
2023-01-22T17:21:40.172Z,102741.31
2023-01-22T17:28:42.045Z,102745.78
2023-01-22T17:35:43.643Z,102752.94
2023-01-22T17:42:45.224Z,102756.44
2023-01-22T17:49:48.199Z,102760.00
2023-01-22T17:56:53.132Z,102772.44
2023-01-22T18:04:02.738Z,102771.53
2023-01-22T18:11:08.461Z,102777.75
2023-01-22T18:18:10.127Z,102778.72
2023-01-22T18:25:11.761Z,102787.63
2023-01-22T18:32:13.432Z,102800.09
2023-01-22T18:39:17.639Z,102807.22
2023-01-22T18:46:19.303Z,102794.78
2023-01-22T18:53:21.125Z,102801.00
2023-01-22T19:00:22.718Z,102800.13
2023-01-22T19:07:24.441Z,102798.34
2023-01-22T19:14:26.308Z,102802.78
2023-01-22T19:21:28.275Z,102793.91
2023-01-22T19:28:29.972Z,102807.25
2023-01-22T19:35:34.489Z,102802.81
2023-01-22T19:42:36.818Z,102805.47
2023-01-22T19:49:39.093Z,102821.47
2023-01-22T19:56:41.627Z,102818.81
2023-01-22T20:03:43.245Z,102839.28
2023-01-22T20:10:44.844Z,102855.31
2023-01-22T20:17:46.486Z,102864.22
2023-01-22T20:24:48.130Z,102875.78
2023-01-22T20:31:54.085Z,102867.75
2023-01-22T20:38:56.055Z,102863.31
2023-01-22T20:46:05.861Z,102862.44
2023-01-22T20:53:07.759Z,102882.00
2023-01-22T21:00:10.151Z,102881.13
2023-01-22T21:07:11.797Z,102881.13
2023-01-22T21:14:16.422Z,102900.69
2023-01-22T21:21:18.738Z,102906.00
2023-01-22T21:28:20.463Z,102918.50
2023-01-22T21:35:22.264Z,102914.06
2023-01-22T21:42:43.045Z,102900.69
2023-01-22T21:49:48.078Z,102910.47
2023-01-22T21:56:49.800Z,102907.81
2023-01-22T22:03:51.535Z,102920.28
2023-01-22T22:10:53.154Z,102929.16
2023-01-22T22:17:54.808Z,102940.75
2023-01-22T22:24:56.454Z,102941.66
2023-01-22T22:31:58.159Z,102941.63
2023-01-22T22:39:00.685Z,102951.44
2023-01-22T22:46:06.442Z,102946.06
2023-01-22T22:53:08.258Z,102952.31
2023-01-22T23:00:12.011Z,102950.53
2023-01-22T23:07:13.637Z,102957.69
2023-01-22T23:14:15.294Z,102960.34
2023-01-22T23:21:18.907Z,102960.34
2023-01-22T23:28:20.616Z,102982.59
2023-01-22T23:35:22.298Z,102995.06
2023-01-22T23:42:23.984Z,102994.19
2023-01-22T23:49:25.646Z,103005.72
2023-01-22T23:56:31.435Z,103002.19
